Terminal Aerodrome Forecast
Issued by NWS Sioux Falls, SD

Home | Current Version | Previous Version | Text Only | Print | Product List | Glossary On
Versions: 1 2 3 4 5 6 7 8 9 10 11 12 13 14 15 16 17 18 19 20 21
033
FTUS43 KFSD 030527
TAFHON
TAF
KHON 030527Z 0306/0406 36018G25KT 5SM BR SCT015 OVC045
     FM031100 33013G18KT P6SM SCT025 BKN035
     FM031400 32012KT P6SM BKN050
     FM032200 26009KT P6SM BKN090=

USA.gov is the U.S. government's official web portal to all federal, state and local government web resources and services.